sensor_id;sensor_type;location;lat;lon;timestamp;temperature;humidity
45137;DHT22;30894;51.740;19.498;2024-03-23T00:53:03;7.70;99.90
45137;DHT22;30894;51.740;19.498;2024-03-23T00:55:30;7.70;99.90
45137;DHT22;30894;51.740;19.498;2024-03-23T00:57:59;7.70;99.90
45137;DHT22;30894;51.740;19.498;2024-03-23T01:00:29;7.70;99.90
45137;DHT22;30894;51.740;19.498;2024-03-23T01:02:55;7.70;99.90
45137;DHT22;30894;51.740;19.498;2024-03-23T01:05:22;7.70;99.90
45137;DHT22;30894;51.740;19.498;2024-03-23T01:07:49;7.70;99.90
45137;DHT22;30894;51.740;19.498;2024-03-23T01:10:19;7.70;99.90
45137;DHT22;30894;51.740;19.498;2024-03-23T01:12:47;7.70;99.90
45137;DHT22;30894;51.740;19.498;2024-03-23T01:15:14;7.70;99.90
45137;DHT22;30894;51.740;19.498;2024-03-23T01:17:41;7.70;99.90
45137;DHT22;30894;51.740;19.498;2024-03-23T01:20:08;7.70;99.90
45137;DHT22;30894;51.740;19.498;2024-03-23T01:22:35;7.70;99.90
45137;DHT22;30894;51.740;19.498;2024-03-23T01:25:06;7.80;99.90
45137;DHT22;30894;51.740;19.498;2024-03-23T01:27:36;7.70;99.90
45137;DHT22;30894;51.740;19.498;2024-03-23T01:30:03;7.70;99.90
45137;DHT22;30894;51.740;19.498;2024-03-23T01:32:32;7.80;99.90
45137;DHT22;30894;51.740;19.498;2024-03-23T01:35:00;7.80;99.90
45137;DHT22;30894;51.740;19.498;2024-03-23T01:37:26;7.80;99.90
45137;DHT22;30894;51.740;19.498;2024-03-23T01:39:53;7.80;99.90
45137;DHT22;30894;51.740;19.498;2024-03-23T01:42:20;7.70;99.90
45137;DHT22;30894;51.740;19.498;2024-03-23T01:44:48;7.70;99.90
45137;DHT22;30894;51.740;19.498;2024-03-23T01:47:15;7.80;99.90
45137;DHT22;30894;51.740;19.498;2024-03-23T01:49:42;7.80;99.90
45137;DHT22;30894;51.740;19.498;2024-03-23T01:52:08;7.80;99.90
45137;DHT22;30894;51.740;19.498;2024-03-23T01:54:38;7.80;99.90
45137;DHT22;30894;51.740;19.498;2024-03-23T01:57:05;7.80;99.90
45137;DHT22;30894;51.740;19.498;2024-03-23T01:59:32;7.80;99.90
45137;DHT22;30894;51.740;19.498;2024-03-23T02:02:00;7.80;99.90
45137;DHT22;30894;51.740;19.498;2024-03-23T02:04:27;7.80;99.90
45137;DHT22;30894;51.740;19.498;2024-03-23T02:06:53;7.80;99.90
45137;DHT22;30894;51.740;19.498;2024-03-23T02:09:21;7.80;99.90
45137;DHT22;30894;51.740;19.498;2024-03-23T02:11:47;7.80;99.90
45137;DHT22;30894;51.740;19.498;2024-03-23T02:14:14;7.90;99.90
45137;DHT22;30894;51.740;19.498;2024-03-23T02:16:43;7.90;99.90
45137;DHT22;30894;51.740;19.498;2024-03-23T02:19:09;7.90;99.90
45137;DHT22;30894;51.740;19.498;2024-03-23T02:21:35;7.90;99.90
45137;DHT22;30894;51.740;19.498;2024-03-23T02:24:03;7.90;99.90
45137;DHT22;30894;51.740;19.498;2024-03-23T02:26:30;7.90;99.90
45137;DHT22;30894;51.740;19.498;2024-03-23T02:28:56;7.90;99.90
45137;DHT22;30894;51.740;19.498;2024-03-23T02:31:22;7.90;99.90
45137;DHT22;30894;51.740;19.498;2024-03-23T02:33:49;7.90;99.90
45137;DHT22;30894;51.740;19.498;2024-03-23T02:36:15;7.90;99.90
45137;DHT22;30894;51.740;19.498;2024-03-23T02:38:45;7.90;99.90
45137;DHT22;30894;51.740;19.498;2024-03-23T02:41:11;7.90;99.90
45137;DHT22;30894;51.740;19.498;2024-03-23T02:43:38;7.90;99.90
45137;DHT22;30894;51.740;19.498;2024-03-23T02:46:05;7.90;99.90
45137;DHT22;30894;51.740;19.498;2024-03-23T02:48:32;7.90;99.90
45137;DHT22;30894;51.740;19.498;2024-03-23T02:51:00;7.90;99.90
45137;DHT22;30894;51.740;19.498;2024-03-23T02:53:27;7.90;99.90
45137;DHT22;30894;51.740;19.498;2024-03-23T02:55:53;7.90;99.90
45137;DHT22;30894;51.740;19.498;2024-03-23T02:58:21;7.90;99.90
45137;DHT22;30894;51.740;19.498;2024-03-23T03:00:49;7.90;99.90
45137;DHT22;30894;51.740;19.498;2024-03-23T03:03:18;8.00;99.90
45137;DHT22;30894;51.740;19.498;2024-03-23T03:05:44;7.90;99.90
45137;DHT22;30894;51.740;19.498;2024-03-23T03:08:13;7.90;99.90
45137;DHT22;30894;51.740;19.498;2024-03-23T03:10:39;7.90;99.90
45137;DHT22;30894;51.740;19.498;2024-03-23T03:13:05;7.90;99.90
45137;DHT22;30894;51.740;19.498;2024-03-23T03:15:31;7.90;99.90
45137;DHT22;30894;51.740;19.498;2024-03-23T03:17:58;7.90;99.90
45137;DHT22;30894;51.740;19.498;2024-03-23T03:20:24;7.90;99.90
45137;DHT22;30894;51.740;19.498;2024-03-23T03:22:51;7.90;99.90
45137;DHT22;30894;51.740;19.498;2024-03-23T03:25:19;7.90;99.90
45137;DHT22;30894;51.740;19.498;2024-03-23T03:27:46;8.00;99.90
45137;DHT22;30894;51.740;19.498;2024-03-23T03:30:12;7.90;99.90
45137;DHT22;30894;51.740;19.498;2024-03-23T03:32:39;7.90;99.90
45137;DHT22;30894;51.740;19.498;2024-03-23T03:35:05;7.90;99.90
45137;DHT22;30894;51.740;19.498;2024-03-23T03:37:32;7.90;99.90
45137;DHT22;30894;51.740;19.498;2024-03-23T03:39:58;7.90;99.90
45137;DHT22;30894;51.740;19.498;2024-03-23T03:42:24;7.90;99.90
45137;DHT22;30894;51.740;19.498;2024-03-23T03:44:50;8.00;99.90
45137;DHT22;30894;51.740;19.498;2024-03-23T03:47:17;7.90;99.90
45137;DHT22;30894;51.740;19.498;2024-03-23T03:49:45;7.90;99.90
45137;DHT22;30894;51.740;19.498;2024-03-23T03:52:14;7.90;99.90
45137;DHT22;30894;51.740;19.498;2024-03-23T03:54:42;7.90;99.90
45137;DHT22;30894;51.740;19.498;2024-03-23T03:57:09;7.90;99.90
45137;DHT22;30894;51.740;19.498;2024-03-23T03:59:35;7.90;99.90
45137;DHT22;30894;51.740;19.498;2024-03-23T04:02:02;7.90;99.90
45137;DHT22;30894;51.740;19.498;2024-03-23T04:04:28;7.90;99.90
45137;DHT22;30894;51.740;19.498;2024-03-23T04:07:03;7.90;99.90
45137;DHT22;30894;51.740;19.498;2024-03-23T04:09:30;7.90;99.90
45137;DHT22;30894;51.740;19.498;2024-03-23T04:11:57;7.90;99.90
45137;DHT22;30894;51.740;19.498;2024-03-23T04:14:25;7.90;99.90
45137;DHT22;30894;51.740;19.498;2024-03-23T04:16:52;7.90;99.90
45137;DHT22;30894;51.740;19.498;2024-03-23T04:19:18;7.90;99.90
45137;DHT22;30894;51.740;19.498;2024-03-23T04:21:44;7.90;99.90
45137;DHT22;30894;51.740;19.498;2024-03-23T04:24:13;7.90;99.90
45137;DHT22;30894;51.740;19.498;2024-03-23T04:26:42;7.90;99.90
45137;DHT22;30894;51.740;19.498;2024-03-23T04:29:08;7.90;99.90
45137;DHT22;30894;51.740;19.498;2024-03-23T04:31:35;7.90;99.90
45137;DHT22;30894;51.740;19.498;2024-03-23T04:34:01;7.90;99.90
45137;DHT22;30894;51.740;19.498;2024-03-23T04:36:28;7.90;99.90
45137;DHT22;30894;51.740;19.498;2024-03-23T04:38:57;7.90;99.90
45137;DHT22;30894;51.740;19.498;2024-03-23T04:41:25;7.90;99.90
45137;DHT22;30894;51.740;19.498;2024-03-23T04:43:51;7.80;99.90
45137;DHT22;30894;51.740;19.498;2024-03-23T04:46:19;7.90;99.90
45137;DHT22;30894;51.740;19.498;2024-03-23T04:48:46;7.90;99.90
45137;DHT22;30894;51.740;19.498;2024-03-23T04:51:23;7.90;99.90
45137;DHT22;30894;51.740;19.498;2024-03-23T04:53:49;7.90;99.90
45137;DHT22;30894;51.740;19.498;2024-03-23T04:56:16;7.90;99.90
45137;DHT22;30894;51.740;19.498;2024-03-23T04:58:43;8.00;99.90
45137;DHT22;30894;51.740;19.498;2024-03-23T05:01:11;7.90;99.90
45137;DHT22;30894;51.740;19.498;2024-03-23T05:03:38;8.00;99.90
45137;DHT22;30894;51.740;19.498;2024-03-23T05:06:05;8.00;99.90
45137;DHT22;30894;51.740;19.498;2024-03-23T05:08:31;8.00;99.90
45137;DHT22;30894;51.740;19.498;2024-03-23T05:10:57;8.00;99.90
45137;DHT22;30894;51.740;19.498;2024-03-23T05:13:23;8.00;99.90
45137;DHT22;30894;51.740;19.498;2024-03-23T05:15:55;8.00;99.90
45137;DHT22;30894;51.740;19.498;2024-03-23T05:18:23;8.00;99.90
45137;DHT22;30894;51.740;19.498;2024-03-23T05:20:58;8.10;99.90
45137;DHT22;30894;51.740;19.498;2024-03-23T05:23:25;8.00;99.90
45137;DHT22;30894;51.740;19.498;2024-03-23T05:25:52;8.10;99.90
45137;DHT22;30894;51.740;19.498;2024-03-23T05:28:18;8.00;99.90
45137;DHT22;30894;51.740;19.498;2024-03-23T05:30:53;8.10;99.90
45137;DHT22;30894;51.740;19.498;2024-03-23T05:33:20;8.10;99.90
45137;DHT22;30894;51.740;19.498;2024-03-23T05:35:47;8.10;99.90
45137;DHT22;30894;51.740;19.498;2024-03-23T05:38:23;8.20;99.90
45137;DHT22;30894;51.740;19.498;2024-03-23T05:40:56;8.20;99.90
45137;DHT22;30894;51.740;19.498;2024-03-23T05:43:23;8.20;99.90
45137;DHT22;30894;51.740;19.498;2024-03-23T05:45:58;8.10;99.90
45137;DHT22;30894;51.740;19.498;2024-03-23T05:48:25;8.10;99.90
45137;DHT22;30894;51.740;19.498;2024-03-23T05:50:52;8.00;99.90
45137;DHT22;30894;51.740;19.498;2024-03-23T05:53:20;8.00;99.90
45137;DHT22;30894;51.740;19.498;2024-03-23T05:55:47;8.00;99.90
45137;DHT22;30894;51.740;19.498;2024-03-23T05:58:16;8.00;99.90
45137;DHT22;30894;51.740;19.498;2024-03-23T06:00:44;8.00;99.90
45137;DHT22;30894;51.740;19.498;2024-03-23T06:03:11;8.00;99.90
45137;DHT22;30894;51.740;19.498;2024-03-23T06:05:38;8.00;99.90
45137;DHT22;30894;51.740;19.498;2024-03-23T06:08:05;8.00;99.90
45137;DHT22;30894;51.740;19.498;2024-03-23T06:10:35;8.10;99.90
45137;DHT22;30894;51.740;19.498;2024-03-23T06:13:01;8.10;99.90
45137;DHT22;30894;51.740;19.498;2024-03-23T06:15:28;8.10;99.90
45137;DHT22;30894;51.740;19.498;2024-03-23T06:17:56;8.00;99.90
45137;DHT22;30894;51.740;19.498;2024-03-23T06:20:25;8.00;99.90
45137;DHT22;30894;51.740;19.498;2024-03-23T06:22:52;8.00;99.90
45137;DHT22;30894;51.740;19.498;2024-03-23T06:25:18;8.00;99.90
45137;DHT22;30894;51.740;19.498;2024-03-23T06:27:44;8.00;99.90
45137;DHT22;30894;51.740;19.498;2024-03-23T06:30:11;8.10;99.90
45137;DHT22;30894;51.740;19.498;2024-03-23T06:32:38;8.10;99.90
45137;DHT22;30894;51.740;19.498;2024-03-23T06:35:05;8.10;99.90
45137;DHT22;30894;51.740;19.498;2024-03-23T06:37:35;8.10;99.90
45137;DHT22;30894;51.740;19.498;2024-03-23T06:40:07;8.20;99.90
45137;DHT22;30894;51.740;19.498;2024-03-23T06:42:36;8.20;99.90
45137;DHT22;30894;51.740;19.498;2024-03-23T06:45:03;8.30;99.90
45137;DHT22;30894;51.740;19.498;2024-03-23T06:47:32;8.30;99.90
45137;DHT22;30894;51.740;19.498;2024-03-23T06:50:03;8.40;99.90
45137;DHT22;30894;51.740;19.498;2024-03-23T06:52:30;8.50;99.90
45137;DHT22;30894;51.740;19.498;2024-03-23T06:54:57;8.60;99.90
45137;DHT22;30894;51.740;19.498;2024-03-23T06:57:23;8.80;99.90
45137;DHT22;30894;51.740;19.498;2024-03-23T06:59:49;9.40;99.90
45137;DHT22;30894;51.740;19.498;2024-03-23T07:02:16;9.60;99.90
45137;DHT22;30894;51.740;19.498;2024-03-23T07:04:43;9.70;99.90
45137;DHT22;30894;51.740;19.498;2024-03-23T07:07:15;9.70;99.90
45137;DHT22;30894;51.740;19.498;2024-03-23T07:09:41;9.80;99.90
45137;DHT22;30894;51.740;19.498;2024-03-23T07:12:08;10.10;99.90
45137;DHT22;30894;51.740;19.498;2024-03-23T07:14:38;10.50;99.90
45137;DHT22;30894;51.740;19.498;2024-03-23T07:17:05;10.70;99.90
45137;DHT22;30894;51.740;19.498;2024-03-23T07:19:34;10.90;99.90
45137;DHT22;30894;51.740;19.498;2024-03-23T07:22:00;11.10;99.90
45137;DHT22;30894;51.740;19.498;2024-03-23T07:24:26;11.20;99.90
45137;DHT22;30894;51.740;19.498;2024-03-23T07:26:52;11.50;99.90
45137;DHT22;30894;51.740;19.498;2024-03-23T07:29:20;11.80;99.90
45137;DHT22;30894;51.740;19.498;2024-03-23T07:31:49;12.00;99.90
45137;DHT22;30894;51.740;19.498;2024-03-23T07:34:17;12.40;99.90
45137;DHT22;30894;51.740;19.498;2024-03-23T07:36:43;12.90;99.90
45137;DHT22;30894;51.740;19.498;2024-03-23T07:39:10;13.20;99.90
45137;DHT22;30894;51.740;19.498;2024-03-23T07:41:44;13.50;99.90
45137;DHT22;30894;51.740;19.498;2024-03-23T07:44:14;14.10;99.90
45137;DHT22;30894;51.740;19.498;2024-03-23T07:46:43;14.80;99.90
45137;DHT22;30894;51.740;19.498;2024-03-23T07:49:10;15.30;99.70
45137;DHT22;30894;51.740;19.498;2024-03-23T07:51:37;16.00;98.30
45137;DHT22;30894;51.740;19.498;2024-03-23T07:54:06;16.80;96.70
45137;DHT22;30894;51.740;19.498;2024-03-23T07:56:32;17.10;95.20
45137;DHT22;30894;51.740;19.498;2024-03-23T07:58:59;16.60;94.90
45137;DHT22;30894;51.740;19.498;2024-03-23T08:01:26;16.20;95.30
45137;DHT22;30894;51.740;19.498;2024-03-23T08:03:52;15.80;95.90
45137;DHT22;30894;51.740;19.498;2024-03-23T08:06:21;15.40;96.50
45137;DHT22;30894;51.740;19.498;2024-03-23T08:08:55;15.10;97.10
45137;DHT22;30894;51.740;19.498;2024-03-23T08:11:32;14.70;97.80
45137;DHT22;30894;51.740;19.498;2024-03-23T08:14:02;14.50;98.60
45137;DHT22;30894;51.740;19.498;2024-03-23T08:16:28;14.30;99.20
45137;DHT22;30894;51.740;19.498;2024-03-23T08:18:55;14.30;99.40
45137;DHT22;30894;51.740;19.498;2024-03-23T08:21:22;14.30;99.50
45137;DHT22;30894;51.740;19.498;2024-03-23T08:23:48;14.30;99.70
45137;DHT22;30894;51.740;19.498;2024-03-23T08:26:16;14.30;99.90
45137;DHT22;30894;51.740;19.498;2024-03-23T08:28:43;14.70;99.80
45137;DHT22;30894;51.740;19.498;2024-03-23T08:31:11;15.00;99.20
45137;DHT22;30894;51.740;19.498;2024-03-23T08:33:38;15.40;98.60
45137;DHT22;30894;51.740;19.498;2024-03-23T08:36:09;16.00;97.70
45137;DHT22;30894;51.740;19.498;2024-03-23T08:38:44;16.60;96.60
45137;DHT22;30894;51.740;19.498;2024-03-23T08:41:11;17.40;95.30
45137;DHT22;30894;51.740;19.498;2024-03-23T08:43:39;18.40;93.60
45137;DHT22;30894;51.740;19.498;2024-03-23T08:46:10;19.30;91.50
45137;DHT22;30894;51.740;19.498;2024-03-23T08:48:44;19.90;90.10
45137;DHT22;30894;51.740;19.498;2024-03-23T08:51:15;20.70;87.60
45137;DHT22;30894;51.740;19.498;2024-03-23T08:53:44;21.00;84.90
45137;DHT22;30894;51.740;19.498;2024-03-23T08:56:11;20.70;84.50
45137;DHT22;30894;51.740;19.498;2024-03-23T08:58:40;20.90;84.40
45137;DHT22;30894;51.740;19.498;2024-03-23T09:01:10;21.20;83.40
45137;DHT22;30894;51.740;19.498;2024-03-23T09:03:39;21.50;82.20
45137;DHT22;30894;51.740;19.498;2024-03-23T09:06:09;22.00;80.80
45137;DHT22;30894;51.740;19.498;2024-03-23T09:08:38;22.10;79.50
45137;DHT22;30894;51.740;19.498;2024-03-23T09:11:07;22.30;78.60
45137;DHT22;30894;51.740;19.498;2024-03-23T09:13:37;22.70;77.80
45137;DHT22;30894;51.740;19.498;2024-03-23T09:16:05;23.00;76.60
45137;DHT22;30894;51.740;19.498;2024-03-23T09:18:34;23.20;75.60
45137;DHT22;30894;51.740;19.498;2024-03-23T09:21:19;23.60;74.70
45137;DHT22;30894;51.740;19.498;2024-03-23T09:23:57;23.80;73.70
45137;DHT22;30894;51.740;19.498;2024-03-23T09:26:29;23.80;73.10
45137;DHT22;30894;51.740;19.498;2024-03-23T09:29:01;24.20;72.80
45137;DHT22;30894;51.740;19.498;2024-03-23T09:31:27;24.30;72.10
45137;DHT22;30894;51.740;19.498;2024-03-23T09:33:55;24.30;71.70
45137;DHT22;30894;51.740;19.498;2024-03-23T09:36:22;24.60;71.00
45137;DHT22;30894;51.740;19.498;2024-03-23T09:38:54;24.50;70.10
45137;DHT22;30894;51.740;19.498;2024-03-23T09:41:20;24.70;70.00
45137;DHT22;30894;51.740;19.498;2024-03-23T09:43:52;25.00;70.00
45137;DHT22;30894;51.740;19.498;2024-03-23T09:46:21;25.20;68.70
45137;DHT22;30894;51.740;19.498;2024-03-23T09:48:47;25.50;68.10
45137;DHT22;30894;51.740;19.498;2024-03-23T09:51:15;25.40;67.40
45137;DHT22;30894;51.740;19.498;2024-03-23T09:53:43;25.30;67.00
45137;DHT22;30894;51.740;19.498;2024-03-23T09:56:13;25.30;66.80
45137;DHT22;30894;51.740;19.498;2024-03-23T09:58:41;25.40;66.40
45137;DHT22;30894;51.740;19.498;2024-03-23T10:01:07;25.40;66.10
45137;DHT22;30894;51.740;19.498;2024-03-23T10:03:45;25.60;66.00
45137;DHT22;30894;51.740;19.498;2024-03-23T10:06:11;25.60;65.40
45137;DHT22;30894;51.740;19.498;2024-03-23T10:08:38;25.80;64.80
45137;DHT22;30894;51.740;19.498;2024-03-23T10:11:15;25.80;64.80
45137;DHT22;30894;51.740;19.498;2024-03-23T10:13:44;26.20;64.40
45137;DHT22;30894;51.740;19.498;2024-03-23T10:16:14;26.50;63.90
45137;DHT22;30894;51.740;19.498;2024-03-23T10:18:50;26.80;63.40
45137;DHT22;30894;51.740;19.498;2024-03-23T10:21:18;26.90;63.20
45137;DHT22;30894;51.740;19.498;2024-03-23T10:23:45;26.90;62.30
45137;DHT22;30894;51.740;19.498;2024-03-23T10:26:16;26.80;61.80
45137;DHT22;30894;51.740;19.498;2024-03-23T10:31:35;27.10;61.40
45137;DHT22;30894;51.740;19.498;2024-03-23T10:34:03;27.30;61.00
45137;DHT22;30894;51.740;19.498;2024-03-23T10:36:30;27.50;60.50
45137;DHT22;30894;51.740;19.498;2024-03-23T10:38:57;27.10;60.70
45137;DHT22;30894;51.740;19.498;2024-03-23T10:41:28;27.00;61.20
45137;DHT22;30894;51.740;19.498;2024-03-23T10:43:59;26.60;61.10
45137;DHT22;30894;51.740;19.498;2024-03-23T10:46:28;26.80;61.40
45137;DHT22;30894;51.740;19.498;2024-03-23T10:48:55;27.10;61.00
45137;DHT22;30894;51.740;19.498;2024-03-23T10:51:21;27.20;59.80
45137;DHT22;30894;51.740;19.498;2024-03-23T10:53:48;26.60;59.80
45137;DHT22;30894;51.740;19.498;2024-03-23T10:56:15;25.70;61.30
45137;DHT22;30894;51.740;19.498;2024-03-23T10:58:46;25.00;62.30
45137;DHT22;30894;51.740;19.498;2024-03-23T11:01:15;24.50;63.40
45137;DHT22;30894;51.740;19.498;2024-03-23T11:03:45;24.10;63.80
45137;DHT22;30894;51.740;19.498;2024-03-23T11:06:35;23.70;64.30
45137;DHT22;30894;51.740;19.498;2024-03-23T11:17:31;21.90;66.90
45137;DHT22;30894;51.740;19.498;2024-03-23T11:20:02;21.50;67.70
45137;DHT22;30894;51.740;19.498;2024-03-23T11:25:21;20.70;69.10
45137;DHT22;30894;51.740;19.498;2024-03-23T11:27:54;20.20;69.60
45137;DHT22;30894;51.740;19.498;2024-03-23T11:30:28;19.80;70.50
45137;DHT22;30894;51.740;19.498;2024-03-23T11:32:56;19.50;71.20
45137;DHT22;30894;51.740;19.498;2024-03-23T11:35:34;19.20;71.70
45137;DHT22;30894;51.740;19.498;2024-03-23T11:38:12;19.00;72.30
45137;DHT22;30894;51.740;19.498;2024-03-23T11:40:41;18.80;73.50
45137;DHT22;30894;51.740;19.498;2024-03-23T11:43:11;18.70;73.10
45137;DHT22;30894;51.740;19.498;2024-03-23T11:45:45;18.60;73.30
45137;DHT22;30894;51.740;19.498;2024-03-23T11:48:18;18.60;73.00
45137;DHT22;30894;51.740;19.498;2024-03-23T11:50:48;18.60;73.00
45137;DHT22;30894;51.740;19.498;2024-03-23T11:53:18;18.60;73.20
45137;DHT22;30894;51.740;19.498;2024-03-23T11:56:12;18.60;73.10
45137;DHT22;30894;51.740;19.498;2024-03-23T11:58:38;18.60;73.20
45137;DHT22;30894;51.740;19.498;2024-03-23T12:01:04;18.50;73.20
45137;DHT22;30894;51.740;19.498;2024-03-23T12:03:36;18.60;73.20
45137;DHT22;30894;51.740;19.498;2024-03-23T12:06:04;18.60;73.10
45137;DHT22;30894;51.740;19.498;2024-03-23T12:08:33;18.70;72.90
45137;DHT22;30894;51.740;19.498;2024-03-23T12:13:38;18.70;72.60
45137;DHT22;30894;51.740;19.498;2024-03-23T12:16:16;18.40;73.10
45137;DHT22;30894;51.740;19.498;2024-03-23T12:18:48;18.10;73.70
45137;DHT22;30894;51.740;19.498;2024-03-23T12:21:16;17.80;74.30
45137;DHT22;30894;51.740;19.498;2024-03-23T12:23:43;17.50;75.20
45137;DHT22;30894;51.740;19.498;2024-03-23T12:26:14;17.00;76.40
45137;DHT22;30894;51.740;19.498;2024-03-23T12:28:43;16.50;77.60
45137;DHT22;30894;51.740;19.498;2024-03-23T12:31:10;16.00;78.90
45137;DHT22;30894;51.740;19.498;2024-03-23T12:33:37;15.60;80.20
45137;DHT22;30894;51.740;19.498;2024-03-23T12:36:03;15.30;81.40
45137;DHT22;30894;51.740;19.498;2024-03-23T12:38:31;15.20;82.40
45137;DHT22;30894;51.740;19.498;2024-03-23T12:40:58;15.20;83.00
45137;DHT22;30894;51.740;19.498;2024-03-23T12:43:24;15.40;82.70
45137;DHT22;30894;51.740;19.498;2024-03-23T12:45:50;15.80;82.00
45137;DHT22;30894;51.740;19.498;2024-03-23T12:48:16;16.40;80.50
45137;DHT22;30894;51.740;19.498;2024-03-23T12:50:43;16.80;79.20
45137;DHT22;30894;51.740;19.498;2024-03-23T12:53:09;16.80;78.60
45137;DHT22;30894;51.740;19.498;2024-03-23T12:55:36;16.80;78.40
45137;DHT22;30894;51.740;19.498;2024-03-23T12:58:03;17.10;78.20
45137;DHT22;30894;51.740;19.498;2024-03-23T13:00:29;17.70;77.10
45137;DHT22;30894;51.740;19.498;2024-03-23T13:02:58;18.30;75.60
45137;DHT22;30894;51.740;19.498;2024-03-23T13:05:25;18.40;74.90
45137;DHT22;30894;51.740;19.498;2024-03-23T13:07:51;18.60;74.40
45137;DHT22;30894;51.740;19.498;2024-03-23T13:10:18;19.00;73.70
45137;DHT22;30894;51.740;19.498;2024-03-23T13:12:44;19.30;73.30
45137;DHT22;30894;51.740;19.498;2024-03-23T13:15:12;19.50;72.60
45137;DHT22;30894;51.740;19.498;2024-03-23T13:17:38;19.70;72.30
45137;DHT22;30894;51.740;19.498;2024-03-23T13:20:05;19.70;72.20
45137;DHT22;30894;51.740;19.498;2024-03-23T13:22:31;19.60;72.50
45137;DHT22;30894;51.740;19.498;2024-03-23T13:24:59;19.40;72.80
45137;DHT22;30894;51.740;19.498;2024-03-23T13:27:25;19.20;73.60
45137;DHT22;30894;51.740;19.498;2024-03-23T13:29:52;18.90;74.40
45137;DHT22;30894;51.740;19.498;2024-03-23T13:32:18;18.70;75.10
45137;DHT22;30894;51.740;19.498;2024-03-23T13:34:44;18.60;75.50
45137;DHT22;30894;51.740;19.498;2024-03-23T13:37:12;18.50;76.00
45137;DHT22;30894;51.740;19.498;2024-03-23T13:39:39;18.20;76.60
45137;DHT22;30894;51.740;19.498;2024-03-23T13:42:07;18.00;77.40
45137;DHT22;30894;51.740;19.498;2024-03-23T13:44:35;17.60;78.10
45137;DHT22;30894;51.740;19.498;2024-03-23T13:47:02;17.30;78.90
45137;DHT22;30894;51.740;19.498;2024-03-23T13:49:31;16.90;79.60
45137;DHT22;30894;51.740;19.498;2024-03-23T13:52:00;16.40;80.20
45137;DHT22;30894;51.740;19.498;2024-03-23T13:54:30;15.30;81.70
45137;DHT22;30894;51.740;19.498;2024-03-23T13:56:57;14.40;83.90
45137;DHT22;30894;51.740;19.498;2024-03-23T13:59:24;13.60;85.60
45137;DHT22;30894;51.740;19.498;2024-03-23T14:01:51;13.00;87.30
45137;DHT22;30894;51.740;19.498;2024-03-23T14:04:23;12.60;88.70
45137;DHT22;30894;51.740;19.498;2024-03-23T14:06:51;12.30;90.00
45137;DHT22;30894;51.740;19.498;2024-03-23T14:09:20;12.00;90.40
45137;DHT22;30894;51.740;19.498;2024-03-23T14:11:51;11.80;90.90
45137;DHT22;30894;51.740;19.498;2024-03-23T14:14:18;11.50;91.40
45137;DHT22;30894;51.740;19.498;2024-03-23T14:16:45;11.40;91.80
45137;DHT22;30894;51.740;19.498;2024-03-23T14:19:11;11.20;92.20
45137;DHT22;30894;51.740;19.498;2024-03-23T14:21:40;11.10;92.60
45137;DHT22;30894;51.740;19.498;2024-03-23T14:24:07;10.90;92.90
45137;DHT22;30894;51.740;19.498;2024-03-23T14:26:35;10.80;93.20
45137;DHT22;30894;51.740;19.498;2024-03-23T14:29:07;10.80;93.50
45137;DHT22;30894;51.740;19.498;2024-03-23T14:31:37;10.90;93.70
45137;DHT22;30894;51.740;19.498;2024-03-23T14:34:03;10.90;93.80
45137;DHT22;30894;51.740;19.498;2024-03-23T14:36:32;10.80;93.90
45137;DHT22;30894;51.740;19.498;2024-03-23T14:38:59;10.80;94.00
45137;DHT22;30894;51.740;19.498;2024-03-23T14:41:30;10.80;94.10
45137;DHT22;30894;51.740;19.498;2024-03-23T14:43:57;10.80;94.30
45137;DHT22;30894;51.740;19.498;2024-03-23T14:46:24;10.60;94.50
45137;DHT22;30894;51.740;19.498;2024-03-23T14:48:52;10.60;94.70
45137;DHT22;30894;51.740;19.498;2024-03-23T14:51:22;10.50;94.90
45137;DHT22;30894;51.740;19.498;2024-03-23T14:53:49;10.50;95.20
45137;DHT22;30894;51.740;19.498;2024-03-23T14:56:16;10.40;95.70
45137;DHT22;30894;51.740;19.498;2024-03-23T14:58:43;10.40;95.50
45137;DHT22;30894;51.740;19.498;2024-03-23T15:01:11;10.40;95.60
45137;DHT22;30894;51.740;19.498;2024-03-23T15:03:44;10.40;95.70
45137;DHT22;30894;51.740;19.498;2024-03-23T15:06:13;10.40;96.10
45137;DHT22;30894;51.740;19.498;2024-03-23T15:08:40;10.40;95.90
45137;DHT22;30894;51.740;19.498;2024-03-23T15:11:11;10.40;96.10
45137;DHT22;30894;51.740;19.498;2024-03-23T15:13:39;10.40;96.20
45137;DHT22;30894;51.740;19.498;2024-03-23T15:16:08;10.30;96.40
45137;DHT22;30894;51.740;19.498;2024-03-23T15:18:39;10.30;96.60
45137;DHT22;30894;51.740;19.498;2024-03-23T15:21:05;10.40;96.80
45137;DHT22;30894;51.740;19.498;2024-03-23T15:23:33;10.30;96.90
45137;DHT22;30894;51.740;19.498;2024-03-23T15:26:01;10.20;97.00
45137;DHT22;30894;51.740;19.498;2024-03-23T15:28:29;10.30;97.20
45137;DHT22;30894;51.740;19.498;2024-03-23T15:31:27;10.40;97.20
45137;DHT22;30894;51.740;19.498;2024-03-23T15:33:55;10.40;97.10
45137;DHT22;30894;51.740;19.498;2024-03-23T15:36:24;10.50;97.00
45137;DHT22;30894;51.740;19.498;2024-03-23T15:38:50;10.60;96.80
45137;DHT22;30894;51.740;19.498;2024-03-23T15:41:17;10.70;96.80
45137;DHT22;30894;51.740;19.498;2024-03-23T15:43:44;10.70;96.70
45137;DHT22;30894;51.740;19.498;2024-03-23T15:46:10;10.70;96.60
45137;DHT22;30894;51.740;19.498;2024-03-23T15:48:37;10.70;96.60
45137;DHT22;30894;51.740;19.498;2024-03-23T15:51:04;10.70;96.60
45137;DHT22;30894;51.740;19.498;2024-03-23T15:53:31;10.70;96.70
45137;DHT22;30894;51.740;19.498;2024-03-23T15:55:59;10.70;97.10
45137;DHT22;30894;51.740;19.498;2024-03-23T15:58:27;10.70;97.00
45137;DHT22;30894;51.740;19.498;2024-03-23T16:00:59;10.70;97.20
45137;DHT22;30894;51.740;19.498;2024-03-23T16:03:26;10.50;97.20
45137;DHT22;30894;51.740;19.498;2024-03-23T16:05:55;10.30;97.50
45137;DHT22;30894;51.740;19.498;2024-03-23T16:08:23;10.10;97.70
45137;DHT22;30894;51.740;19.498;2024-03-23T16:10:51;9.90;98.00
45137;DHT22;30894;51.740;19.498;2024-03-23T16:13:18;9.70;98.30
45137;DHT22;30894;51.740;19.498;2024-03-23T16:15:45;9.60;98.60
45137;DHT22;30894;51.740;19.498;2024-03-23T16:18:12;9.40;98.90
45137;DHT22;30894;51.740;19.498;2024-03-23T16:20:38;9.30;99.10
45137;DHT22;30894;51.740;19.498;2024-03-23T16:23:08;9.20;99.10
45137;DHT22;30894;51.740;19.498;2024-03-23T16:25:34;9.00;99.20
45137;DHT22;30894;51.740;19.498;2024-03-23T16:28:00;9.00;99.70
45137;DHT22;30894;51.740;19.498;2024-03-23T16:30:27;8.90;99.70
45137;DHT22;30894;51.740;19.498;2024-03-23T16:32:54;8.80;99.90
45137;DHT22;30894;51.740;19.498;2024-03-23T16:35:20;8.70;99.90
45137;DHT22;30894;51.740;19.498;2024-03-23T16:37:47;8.50;99.90